createdAt,value
2022-10-24T00:00:35.533Z,14.20
2022-10-24T00:03:03.469Z,14.19
2022-10-24T00:05:31.324Z,14.22
2022-10-24T00:08:00.629Z,14.22
2022-10-24T00:10:28.515Z,14.26
2022-10-24T00:12:56.374Z,14.39
2022-10-24T00:15:24.423Z,14.41
2022-10-24T00:17:52.317Z,14.38
2022-10-24T00:20:20.315Z,14.52
2022-10-24T00:22:48.138Z,14.59
2022-10-24T00:25:17.429Z,14.63
2022-10-24T00:27:45.325Z,14.66
2022-10-24T00:30:13.889Z,14.75
2022-10-24T00:32:41.797Z,14.88
2022-10-24T00:35:11.688Z,14.75
2022-10-24T00:37:39.571Z,14.67
2022-10-24T00:40:10.306Z,14.57
2022-10-24T00:42:39.547Z,14.63
2022-10-24T00:45:41.642Z,14.67
2022-10-24T00:48:16.539Z,14.55
2022-10-24T00:50:44.681Z,14.43
2022-10-24T00:53:12.767Z,14.39
2022-10-24T00:55:40.656Z,14.39
2022-10-24T00:58:10.127Z,14.43
2022-10-24T01:00:38.070Z,14.47
2022-10-24T01:03:05.975Z,14.42
2022-10-24T01:05:38.684Z,14.44
2022-10-24T01:08:11.642Z,14.53
2022-10-24T01:10:40.250Z,14.59
2022-10-24T01:13:18.741Z,14.57
2022-10-24T01:15:50.491Z,14.49
2022-10-24T01:18:23.685Z,14.46
2022-10-24T01:21:05.905Z,14.46
2022-10-24T01:24:04.265Z,14.42
2022-10-24T01:26:57.047Z,14.41
2022-10-24T01:29:49.651Z,14.36
2022-10-24T01:32:24.492Z,14.30
2022-10-24T01:35:00.325Z,14.27
2022-10-24T01:37:31.988Z,14.18
2022-10-24T01:40:03.598Z,14.10
2022-10-24T01:42:33.622Z,14.02
2022-10-24T01:45:03.199Z,13.98
2022-10-24T01:47:34.772Z,13.96
2022-10-24T01:50:06.578Z,13.89
2022-10-24T01:52:37.615Z,13.88
2022-10-24T01:55:06.271Z,13.83
2022-10-24T01:57:34.955Z,13.82
2022-10-24T02:00:08.443Z,13.79
2022-10-24T02:02:41.446Z,13.82
2022-10-24T02:05:12.871Z,13.81
2022-10-24T02:07:42.443Z,13.78
2022-10-24T02:10:13.716Z,13.78
2022-10-24T02:12:44.744Z,13.76
2022-10-24T02:15:20.552Z,13.77
2022-10-24T02:17:48.399Z,13.74
2022-10-24T02:20:16.755Z,13.81
2022-10-24T02:22:49.112Z,13.83
2022-10-24T02:25:20.284Z,13.87
2022-10-24T02:27:52.808Z,13.79
2022-10-24T02:30:23.472Z,13.81
2022-10-24T02:32:53.076Z,13.82
2022-10-24T02:35:25.645Z,13.76
2022-10-24T02:37:55.420Z,13.81
2022-10-24T02:40:24.085Z,13.80
2022-10-24T02:42:54.819Z,13.79
2022-10-24T02:45:24.478Z,13.77
2022-10-24T02:47:55.574Z,13.84
2022-10-24T02:50:23.547Z,13.83
2022-10-24T02:52:51.387Z,13.82
2022-10-24T02:55:19.270Z,13.75
2022-10-24T02:57:47.204Z,13.70
2022-10-24T03:00:18.586Z,13.72
2022-10-24T03:02:48.039Z,13.72
2022-10-24T03:05:16.116Z,13.78
2022-10-24T03:07:43.998Z,13.78
2022-10-24T03:10:11.861Z,13.81
2022-10-24T03:12:39.734Z,13.89
2022-10-24T03:15:08.781Z,13.91
2022-10-24T03:17:36.686Z,13.94
2022-10-24T03:20:06.968Z,13.94
2022-10-24T03:22:34.834Z,13.97
2022-10-24T03:25:03.698Z,13.93
2022-10-24T03:27:31.588Z,13.88
2022-10-24T03:30:05.950Z,13.84
2022-10-24T03:32:34.529Z,13.82
2022-10-24T03:35:02.617Z,13.78
2022-10-24T03:37:32.237Z,13.82
2022-10-24T03:40:00.093Z,13.66
2022-10-24T03:42:27.950Z,13.60
2022-10-24T03:44:55.793Z,13.59
2022-10-24T03:47:23.995Z,13.60
2022-10-24T03:49:51.856Z,13.64
2022-10-24T03:52:20.041Z,13.57
2022-10-24T03:54:49.443Z,13.57
2022-10-24T03:57:17.327Z,13.57
2022-10-24T03:59:45.304Z,13.49
2022-10-24T04:02:14.007Z,13.48
2022-10-24T04:04:42.265Z,13.45
2022-10-24T04:07:10.134Z,13.45
2022-10-24T04:09:37.984Z,13.47
2022-10-24T04:12:07.435Z,13.39
2022-10-24T04:14:35.279Z,13.45
2022-10-24T04:17:03.277Z,13.42
2022-10-24T04:19:31.145Z,13.38
2022-10-24T04:21:59.023Z,13.34
2022-10-24T04:24:27.168Z,13.33
2022-10-24T04:26:55.053Z,13.36
2022-10-24T04:29:24.375Z,13.37
2022-10-24T04:31:52.242Z,13.32
2022-10-24T04:34:20.157Z,13.32
2022-10-24T04:36:48.028Z,13.32
2022-10-24T04:39:16.169Z,13.24
2022-10-24T04:41:44.025Z,13.20
2022-10-24T04:44:11.974Z,13.23
2022-10-24T04:46:41.215Z,13.19
2022-10-24T04:49:09.978Z,13.24
2022-10-24T04:51:37.768Z,13.24
2022-10-24T04:54:06.027Z,13.16
2022-10-24T04:56:33.975Z,13.18
2022-10-24T04:59:02.339Z,13.20
2022-10-24T05:01:30.451Z,13.14
2022-10-24T05:03:59.780Z,13.20
2022-10-24T05:06:27.827Z,13.17
2022-10-24T05:08:55.805Z,13.16
2022-10-24T05:11:23.762Z,13.13
2022-10-24T05:13:51.705Z,13.08
2022-10-24T05:16:19.658Z,13.03
2022-10-24T05:18:47.511Z,13.01
2022-10-24T05:21:17.282Z,12.96
2022-10-24T05:23:45.205Z,12.97
2022-10-24T05:26:13.226Z,12.96
2022-10-24T05:28:41.190Z,12.93
2022-10-24T05:31:09.202Z,12.97
2022-10-24T05:33:37.128Z,12.93
2022-10-24T05:36:06.329Z,12.92
2022-10-24T05:38:35.649Z,12.93
2022-10-24T05:41:03.720Z,12.92
2022-10-24T05:43:31.675Z,12.85
2022-10-24T05:45:59.635Z,12.90
2022-10-24T05:48:27.745Z,12.92
2022-10-24T05:50:57.535Z,12.86
2022-10-24T05:53:25.801Z,12.85
2022-10-24T05:55:55.175Z,12.83
2022-10-24T05:58:23.112Z,12.85
2022-10-24T06:00:54.022Z,12.87
2022-10-24T06:03:22.543Z,12.94
2022-10-24T06:05:50.520Z,12.87
2022-10-24T06:08:19.091Z,12.85
2022-10-24T06:10:48.470Z,12.82
2022-10-24T06:13:18.329Z,12.86
2022-10-24T06:15:46.380Z,12.84
2022-10-24T06:18:14.304Z,12.88
2022-10-24T06:20:42.211Z,12.84
2022-10-24T06:23:10.084Z,12.82
2022-10-24T06:25:38.015Z,12.82
2022-10-24T06:30:37.780Z,12.94
2022-10-24T06:33:05.613Z,12.92
2022-10-24T06:35:33.594Z,12.96
2022-10-24T06:38:01.630Z,13.07
2022-10-24T06:40:29.570Z,13.10
2022-10-24T06:42:57.977Z,13.18
2022-10-24T06:45:25.962Z,13.24
2022-10-24T06:47:55.700Z,13.32
2022-10-24T06:50:24.095Z,13.27
2022-10-24T06:52:51.976Z,13.34
2022-10-24T06:55:19.892Z,13.33
2022-10-24T06:57:48.010Z,13.43
2022-10-24T07:00:17.584Z,13.30
2022-10-24T07:02:45.878Z,13.27
2022-10-24T07:05:15.402Z,13.34
2022-10-24T07:07:44.589Z,13.36
2022-10-24T07:10:14.235Z,13.34
2022-10-24T07:12:43.361Z,13.36
2022-10-24T07:15:12.270Z,13.38
2022-10-24T07:17:40.990Z,13.46
2022-10-24T07:20:09.814Z,13.45
2022-10-24T07:22:39.017Z,13.49
2022-10-24T07:25:08.179Z,13.58
2022-10-24T07:27:36.299Z,13.52
2022-10-24T07:30:05.919Z,13.56
2022-10-24T07:32:34.060Z,13.57
2022-10-24T07:35:02.044Z,13.68
2022-10-24T07:37:29.928Z,13.73
2022-10-24T07:39:59.170Z,13.74
2022-10-24T07:42:27.055Z,13.78
2022-10-24T07:44:55.000Z,13.89
2022-10-24T07:47:22.865Z,13.95
2022-10-24T07:49:50.783Z,14.02
2022-10-24T07:52:18.665Z,14.10
2022-10-24T07:54:46.495Z,14.15
2022-10-24T07:57:15.742Z,14.14
2022-10-24T07:59:43.627Z,14.32
2022-10-24T08:02:12.761Z,14.32
2022-10-24T08:04:40.947Z,14.40
2022-10-24T08:07:13.311Z,14.50
2022-10-24T08:09:43.010Z,14.50
2022-10-24T08:12:11.401Z,14.48
2022-10-24T08:14:41.871Z,14.55
2022-10-24T08:17:09.768Z,14.54
2022-10-24T08:19:43.731Z,14.59
2022-10-24T08:22:12.363Z,14.55
2022-10-24T08:24:40.180Z,14.67
2022-10-24T08:27:07.994Z,14.69
2022-10-24T08:29:36.245Z,14.76
2022-10-24T08:32:06.776Z,14.87
2022-10-24T08:34:34.972Z,14.87
2022-10-24T08:37:03.302Z,14.88
2022-10-24T08:39:31.189Z,14.96
2022-10-24T08:42:01.571Z,15.00
2022-10-24T08:44:31.871Z,15.03
2022-10-24T08:47:03.445Z,15.21
2022-10-24T08:49:37.167Z,15.25
2022-10-24T08:52:12.452Z,15.31
2022-10-24T08:54:42.592Z,15.49
2022-10-24T08:57:19.183Z,15.65
2022-10-24T08:59:47.158Z,15.74
2022-10-24T09:02:19.905Z,15.82
2022-10-24T09:04:50.559Z,15.99
2022-10-24T09:07:20.540Z,15.90
2022-10-24T09:09:51.145Z,16.11
2022-10-24T09:12:20.344Z,16.21
2022-10-24T09:14:53.149Z,16.25
2022-10-24T09:17:21.746Z,16.25
2022-10-24T09:19:54.377Z,16.40
2022-10-24T09:22:22.775Z,16.26
2022-10-24T09:24:53.033Z,16.40
2022-10-24T09:27:23.962Z,16.35
2022-10-24T09:29:52.556Z,16.39
2022-10-24T09:32:22.703Z,16.56
2022-10-24T09:34:52.097Z,16.52
2022-10-24T09:37:42.831Z,16.64
2022-10-24T09:40:19.986Z,16.71
2022-10-24T09:42:55.398Z,16.87
2022-10-24T09:45:36.855Z,16.89
2022-10-24T09:48:07.520Z,16.99
2022-10-24T09:50:37.024Z,17.22
2022-10-24T09:53:05.891Z,17.17
2022-10-24T09:55:34.350Z,17.18
2022-10-24T09:58:05.372Z,17.09
2022-10-24T10:00:35.535Z,17.07
2022-10-24T10:03:09.784Z,17.14
2022-10-24T10:05:47.176Z,17.31
2022-10-24T10:08:20.557Z,17.29
2022-10-24T10:11:00.171Z,17.49
2022-10-24T10:13:29.210Z,17.72
2022-10-24T10:15:58.293Z,17.78
2022-10-24T10:18:33.216Z,17.83
2022-10-24T10:21:08.812Z,18.03
2022-10-24T10:23:38.640Z,18.11
2022-10-24T10:26:15.410Z,18.22
2022-10-24T10:28:49.198Z,18.36
2022-10-24T10:31:18.763Z,18.48
2022-10-24T10:33:54.445Z,18.60
2022-10-24T10:36:26.415Z,18.81
2022-10-24T10:39:02.385Z,18.64
2022-10-24T10:41:37.518Z,18.83
2022-10-24T10:44:31.139Z,18.90
2022-10-24T10:47:05.736Z,18.81
2022-10-24T10:49:37.582Z,18.76
2022-10-24T10:52:08.876Z,18.93
2022-10-24T10:54:52.249Z,19.27
2022-10-24T10:57:26.476Z,19.53
2022-10-24T10:59:59.905Z,19.50
2022-10-24T11:02:42.085Z,19.75
2022-10-24T11:05:32.465Z,20.08
2022-10-24T11:08:10.480Z,20.12
2022-10-24T11:10:42.078Z,19.87
2022-10-24T11:13:15.770Z,20.05
2022-10-24T11:15:45.691Z,20.24
2022-10-24T11:18:17.517Z,20.48
2022-10-24T11:20:48.278Z,20.43
2022-10-24T11:23:21.125Z,20.61
2022-10-24T11:25:52.486Z,20.53
2022-10-24T11:28:24.527Z,20.82
2022-10-24T11:30:55.517Z,20.85
2022-10-24T11:33:25.887Z,21.30
2022-10-24T11:36:03.957Z,21.66
2022-10-24T11:38:34.378Z,21.54
2022-10-24T11:41:16.914Z,21.18
2022-10-24T11:43:47.084Z,20.93
2022-10-24T11:46:17.690Z,20.84
2022-10-24T11:51:23.466Z,21.28
2022-10-24T11:53:56.475Z,21.36
2022-10-24T11:56:30.948Z,21.20
2022-10-24T11:59:01.214Z,21.67
2022-10-24T12:01:58.766Z,21.25
2022-10-24T12:05:11.554Z,21.05
2022-10-24T12:08:14.607Z,21.72
2022-10-24T12:10:58.988Z,21.68
2022-10-24T12:13:37.818Z,22.27
2022-10-24T12:16:12.264Z,22.75
2022-10-24T12:18:42.307Z,21.76
2022-10-24T12:21:13.173Z,21.84
2022-10-24T12:23:41.596Z,22.24
2022-10-24T12:26:19.843Z,22.85
2022-10-24T12:28:55.419Z,23.07
2022-10-24T12:31:27.895Z,22.78
2022-10-24T12:34:14.351Z,22.57
2022-10-24T12:37:11.789Z,22.27
2022-10-24T12:39:44.396Z,22.03
2022-10-24T12:42:18.510Z,21.82
2022-10-24T12:44:50.415Z,21.67
2022-10-24T12:47:34.447Z,21.64
2022-10-24T12:50:35.412Z,21.31
2022-10-24T12:53:06.524Z,21.09
2022-10-24T12:56:22.548Z,20.73
2022-10-24T12:59:00.159Z,20.54
2022-10-24T13:01:33.211Z,20.27
2022-10-24T13:04:41.342Z,19.94
2022-10-24T13:07:29.335Z,19.79
2022-10-24T13:10:12.129Z,20.02
2022-10-24T13:13:17.479Z,21.26
2022-10-24T13:15:49.988Z,20.71
2022-10-24T13:18:27.654Z,20.56
2022-10-24T13:21:14.143Z,21.05
2022-10-24T13:23:44.423Z,20.82
2022-10-24T13:26:37.603Z,20.98
2022-10-24T13:29:06.477Z,21.01
2022-10-24T13:31:50.193Z,20.64
2022-10-24T13:34:26.658Z,20.97
2022-10-24T13:37:01.298Z,20.68
2022-10-24T13:39:33.142Z,20.99
2022-10-24T13:42:06.135Z,20.79
2022-10-24T13:44:41.267Z,20.72
2022-10-24T13:47:16.241Z,20.74
2022-10-24T13:49:50.705Z,21.62
2022-10-24T13:52:21.958Z,21.29
2022-10-24T13:54:56.301Z,20.48
2022-10-24T13:57:31.278Z,20.03
2022-10-24T14:00:00.922Z,20.09
2022-10-24T14:02:33.538Z,19.90
2022-10-24T14:05:02.549Z,19.92
2022-10-24T14:07:31.504Z,19.64
2022-10-24T14:10:03.147Z,19.55
2022-10-24T14:12:33.756Z,19.50
2022-10-24T14:15:03.650Z,19.41
2022-10-24T14:17:34.472Z,19.49
2022-10-24T14:20:04.585Z,19.53
2022-10-24T14:22:39.701Z,19.48
2022-10-24T14:25:08.512Z,19.37
2022-10-24T14:27:36.706Z,19.29
2022-10-24T14:30:06.550Z,19.23
2022-10-24T14:32:35.843Z,19.09
2022-10-24T14:35:03.941Z,19.05
2022-10-24T14:37:34.044Z,18.90
2022-10-24T14:40:02.151Z,18.01
2022-10-24T14:42:30.481Z,17.95
2022-10-24T14:44:58.723Z,18.12
2022-10-24T14:47:31.809Z,18.72
2022-10-24T14:50:06.633Z,18.90
2022-10-24T14:52:36.982Z,18.84
2022-10-24T14:55:06.984Z,18.96
2022-10-24T14:57:36.259Z,18.88
2022-10-24T15:00:08.380Z,18.32
2022-10-24T15:02:42.055Z,17.71
2022-10-24T15:05:33.918Z,17.61
2022-10-24T15:08:26.294Z,17.51
2022-10-24T15:11:18.196Z,17.45
2022-10-24T15:14:05.207Z,17.41
2022-10-24T15:16:37.424Z,17.47
2022-10-24T15:19:07.030Z,17.41
2022-10-24T15:21:39.677Z,17.39
2022-10-24T15:24:08.466Z,17.25
2022-10-24T15:26:39.514Z,17.17
2022-10-24T15:29:16.776Z,17.28
2022-10-24T15:31:46.491Z,17.46
2022-10-24T15:34:15.705Z,17.47
2022-10-24T15:36:46.116Z,17.34
2022-10-24T15:39:15.489Z,17.26
2022-10-24T15:41:43.469Z,17.24
2022-10-24T15:44:16.438Z,17.25
2022-10-24T15:46:44.517Z,17.25
2022-10-24T15:49:12.533Z,17.26
2022-10-24T15:51:45.895Z,17.31
2022-10-24T15:54:19.636Z,17.30
2022-10-24T15:56:47.863Z,17.19
2022-10-24T15:59:15.921Z,17.28
2022-10-24T16:01:47.467Z,17.13
2022-10-24T16:04:15.693Z,17.21
2022-10-24T16:06:43.586Z,17.04
2022-10-24T16:09:15.738Z,17.02
2022-10-24T16:11:45.508Z,16.94
2022-10-24T16:14:14.288Z,16.96
2022-10-24T16:16:42.154Z,16.87
2022-10-24T16:19:10.625Z,16.94
2022-10-24T16:21:39.862Z,16.87
2022-10-24T16:24:08.975Z,16.87
2022-10-24T16:26:37.492Z,16.76
2022-10-24T16:29:06.880Z,16.74
2022-10-24T16:31:35.239Z,16.66
2022-10-24T16:34:03.301Z,16.68
2022-10-24T16:36:32.675Z,16.61
2022-10-24T16:39:00.487Z,16.48
2022-10-24T16:41:28.400Z,16.48
2022-10-24T16:43:57.060Z,16.48
2022-10-24T16:46:28.155Z,16.49
2022-10-24T16:48:56.508Z,16.55
2022-10-24T16:51:27.330Z,16.47
2022-10-24T16:53:55.174Z,16.46
2022-10-24T16:56:23.112Z,16.52
2022-10-24T16:58:50.911Z,16.42
2022-10-24T17:01:18.862Z,16.49
2022-10-24T17:03:48.240Z,16.46
2022-10-24T17:06:16.476Z,16.52
2022-10-24T17:08:44.816Z,16.49
2022-10-24T17:11:39.611Z,16.47
2022-10-24T17:14:00.569Z,16.51
2022-10-24T17:16:28.567Z,16.49
2022-10-24T17:19:14.774Z,16.48
2022-10-24T17:21:43.763Z,16.60
2022-10-24T17:24:12.675Z,16.45
2022-10-24T17:26:40.894Z,16.34
2022-10-24T17:29:09.269Z,16.34
2022-10-24T17:31:37.360Z,16.30
2022-10-24T17:34:07.232Z,16.27
2022-10-24T17:36:38.987Z,16.21
2022-10-24T17:39:10.731Z,16.08
2022-10-24T17:41:40.873Z,16.05
2022-10-24T17:44:13.727Z,16.02
2022-10-24T17:46:41.798Z,15.97
2022-10-24T17:49:16.394Z,15.97
2022-10-24T17:51:47.906Z,15.91
2022-10-24T17:54:16.267Z,15.80
2022-10-24T17:56:44.662Z,15.90
2022-10-24T17:59:12.612Z,15.78
2022-10-24T18:01:40.701Z,15.68
2022-10-24T18:04:08.812Z,15.59
2022-10-24T18:06:42.997Z,15.66
2022-10-24T18:09:11.570Z,15.53
2022-10-24T18:11:39.980Z,15.62
2022-10-24T18:14:08.152Z,15.53
2022-10-24T18:16:37.102Z,15.52
2022-10-24T18:19:05.321Z,15.41
2022-10-24T18:21:33.421Z,15.41
2022-10-24T18:24:02.746Z,15.41
2022-10-24T18:26:30.825Z,15.44
2022-10-24T18:28:59.026Z,15.43
2022-10-24T18:31:28.700Z,15.37
2022-10-24T18:33:58.935Z,15.38
2022-10-24T18:36:29.213Z,15.24
2022-10-24T18:38:58.181Z,15.24
2022-10-24T18:41:36.950Z,15.26
2022-10-24T18:44:18.215Z,15.27
2022-10-24T18:46:46.497Z,15.26
2022-10-24T18:49:16.358Z,15.24
2022-10-24T18:51:50.349Z,15.19
2022-10-24T18:56:54.274Z,15.12
2022-10-24T18:59:22.649Z,15.02
2022-10-24T19:01:59.303Z,15.03
2022-10-24T19:04:28.046Z,15.03
2022-10-24T19:06:58.283Z,15.00
2022-10-24T19:09:27.499Z,14.96
2022-10-24T19:11:57.234Z,14.93
2022-10-24T19:14:25.515Z,14.94
2022-10-24T19:16:53.691Z,14.98
2022-10-24T19:19:24.360Z,15.00
2022-10-24T19:21:52.434Z,15.04
2022-10-24T19:24:20.462Z,15.03
2022-10-24T19:26:48.531Z,14.99
2022-10-24T19:29:17.934Z,15.11
2022-10-24T19:31:46.273Z,15.15
2022-10-24T19:34:14.155Z,15.12
2022-10-24T19:36:41.987Z,15.03
2022-10-24T19:39:10.393Z,15.01
2022-10-24T19:41:38.271Z,15.01
2022-10-24T19:44:06.520Z,15.08
2022-10-24T19:46:35.923Z,15.08
2022-10-24T19:49:03.816Z,15.06
2022-10-24T19:51:31.749Z,15.15
2022-10-24T19:53:59.588Z,15.17
2022-10-24T19:56:29.024Z,15.24
2022-10-24T19:58:57.222Z,15.33
2022-10-24T20:01:26.815Z,15.31
2022-10-24T20:03:57.175Z,15.41
2022-10-24T20:06:25.917Z,15.37
2022-10-24T20:08:53.829Z,15.43
2022-10-24T20:11:21.708Z,15.32
2022-10-24T20:13:50.274Z,15.31
2022-10-24T20:16:18.464Z,15.32
2022-10-24T20:18:46.820Z,15.29
2022-10-24T20:21:18.061Z,15.22
2022-10-24T20:23:46.935Z,15.20
2022-10-24T20:26:17.199Z,15.18
2022-10-24T20:28:46.546Z,15.09
2022-10-24T20:31:25.317Z,15.08
2022-10-24T20:33:53.334Z,15.07
2022-10-24T20:36:22.504Z,15.09
2022-10-24T20:38:50.504Z,15.05
2022-10-24T20:41:18.494Z,14.96
2022-10-24T20:43:46.409Z,15.02
2022-10-24T20:46:14.385Z,14.99
2022-10-24T20:48:42.323Z,14.96
2022-10-24T20:51:12.725Z,14.98
2022-10-24T20:53:42.494Z,14.96
2022-10-24T20:56:11.879Z,14.90
2022-10-24T20:58:40.954Z,14.95
2022-10-24T21:01:09.578Z,14.83
2022-10-24T21:03:37.992Z,14.80
2022-10-24T21:06:06.874Z,14.77
2022-10-24T21:08:34.727Z,14.63
2022-10-24T21:11:07.763Z,14.64
2022-10-24T21:13:35.700Z,14.62
2022-10-24T21:16:06.300Z,14.49
2022-10-24T21:18:34.193Z,14.47
2022-10-24T21:21:07.190Z,14.49
2022-10-24T21:23:35.070Z,14.37
2022-10-24T21:26:04.910Z,14.48
2022-10-24T21:28:34.253Z,14.39
2022-10-24T21:31:06.208Z,14.35
2022-10-24T21:33:34.287Z,14.32
2022-10-24T21:36:05.717Z,14.22
2022-10-24T21:38:33.774Z,14.11
2022-10-24T21:41:02.341Z,14.07
2022-10-24T21:43:32.126Z,14.08
2022-10-24T21:46:05.868Z,14.09
2022-10-24T21:48:33.956Z,14.06
2022-10-24T21:51:03.382Z,14.09
2022-10-24T21:53:31.198Z,14.22
2022-10-24T21:56:06.419Z,14.09
2022-10-24T21:58:34.539Z,14.11
2022-10-24T22:01:04.250Z,14.04
2022-10-24T22:03:32.251Z,14.03
2022-10-24T22:06:00.344Z,14.02
2022-10-24T22:08:28.414Z,14.00
2022-10-24T22:10:57.812Z,13.92
2022-10-24T22:13:25.842Z,13.98
2022-10-24T22:15:53.766Z,14.02
2022-10-24T22:18:23.073Z,14.06
2022-10-24T22:20:51.426Z,14.07
2022-10-24T22:23:19.596Z,14.06
2022-10-24T22:25:47.433Z,14.07
2022-10-24T22:28:15.294Z,13.99
2022-10-24T22:30:43.874Z,14.03
2022-10-24T22:33:17.838Z,14.03
2022-10-24T22:35:50.362Z,14.02
2022-10-24T22:38:18.594Z,13.97
2022-10-24T22:40:47.266Z,13.95
2022-10-24T22:43:15.655Z,13.99
2022-10-24T22:45:48.874Z,13.95
2022-10-24T22:48:20.562Z,13.93
2022-10-24T22:50:52.219Z,13.98
2022-10-24T22:53:22.260Z,13.83
2022-10-24T22:56:03.947Z,13.84
2022-10-24T22:58:32.403Z,13.86
2022-10-24T23:01:03.347Z,13.96
2022-10-24T23:03:37.571Z,14.02
2022-10-24T23:06:13.311Z,14.02
2022-10-24T23:08:43.809Z,13.90
2022-10-24T23:11:12.939Z,13.90
2022-10-24T23:13:41.434Z,13.93
2022-10-24T23:16:16.160Z,13.94
2022-10-24T23:18:44.523Z,13.99
2022-10-24T23:21:29.336Z,13.99
2022-10-24T23:23:57.711Z,14.07
2022-10-24T23:26:34.141Z,14.07
2022-10-24T23:29:07.642Z,14.02
2022-10-24T23:31:36.022Z,14.03
2022-10-24T23:34:04.426Z,13.98
2022-10-24T23:36:34.423Z,13.85
2022-10-24T23:39:02.819Z,13.71
2022-10-24T23:41:31.106Z,13.71
2022-10-24T23:43:59.523Z,13.73
2022-10-24T23:46:31.751Z,13.66
2022-10-24T23:49:10.713Z,13.66
2022-10-24T23:51:43.196Z,13.50
2022-10-24T23:54:12.771Z,13.48
2022-10-24T23:56:41.233Z,13.43
2022-10-24T23:59:09.066Z,13.46
